Wednesday, May 24, 2017, 2:17 AM MDT
Back to Local

KSLC, Salt Lake City International Airport

Location: Salt Lake City, UT, United States Lat: 40.783
Local Time: 2:17 AM MDT ( 8:17 GMT) Lon: -111.967
Time Zone: US/Mountain Elev: 4225 ft

Show me the last for .
Show Decoded

2017-05-24 01:54 METAR KSLC 240754Z 15007KT 10SM CLR 18/03 A2994 RMK AO2 SLP087 T01830028 =
2017-05-24 00:54 METAR KSLC 240654Z 14009KT 10SM CLR 19/03 A2996 RMK AO2 SLP094 T01890028
                 402780133 =
2017-05-23 23:54 METAR KSLC 240554Z 13007KT 10SM CLR 19/04 A2997 RMK AO2 SLP100 T01940039 10278
                 20189 58011 =
2017-05-23 22:54 METAR KSLC 240454Z 17007KT 10SM CLR 19/05 A2999 RMK AO2 SLP110 T01890050 =
2017-05-23 21:54 METAR KSLC 240354Z 11007KT 10SM FEW200 21/06 A3000 RMK AO2 SLP111 T02060056 =
2017-05-23 20:54 METAR KSLC 240254Z 04003KT 10SM FEW200 24/04 A3001 RMK AO2 SLP113 T02390044
                 56014 =
2017-05-23 19:54 METAR KSLC 240154Z 02007KT 10SM FEW090 FEW200 26/04 A3002 RMK AO2 SLP118
                 T02560039 =
2017-05-23 18:54 METAR KSLC 240054Z 36007KT 10SM FEW200 FEW250 27/03 A3003 RMK AO2 SLP123
                 T02720028 =
2017-05-23 17:54 METAR KSLC 232354Z 36005KT 10SM FEW200 FEW250 27/01 A3005 RMK AO2 SLP132
                 T02720011 10278 20239 58019 =
2017-05-23 16:54 METAR KSLC 232254Z 05006KT 10SM FEW090 FEW200 SCT250 27/02 A3007 RMK AO2 SLP139
                 T02720022 =
2017-05-23 15:54 METAR KSLC 232154Z 01012G16KT 10SM FEW090 FEW200 BKN250 27/04 A3010 RMK AO2
                 SLP148 T02670044 =
2017-05-23 14:54 METAR KSLC 232054Z 01008KT 10SM FEW095 FEW200 BKN250 27/03 A3012 RMK AO2 SLP151
                 T02670028 56013 =
2017-05-23 13:54 METAR KSLC 231954Z 33007KT 10SM FEW090 FEW200 BKN250 26/04 A3013 RMK AO2 SLP158
                 T02560044 =
2017-05-23 12:54 METAR KSLC 231854Z VRB04KT 10SM FEW085 SCT200 BKN250 26/05 A3014 RMK AO2 SLP160
                 T02560050 =
2017-05-23 11:54 METAR KSLC 231754Z 00000KT 10SM FEW090 SCT200 BKN250 24/04 A3016 RMK AO2 SLP168
                 T02390039 10244 20139 58007 =
2017-05-23 10:54 METAR KSLC 231654Z 16005KT 10SM FEW090 FEW200 BKN250 22/05 A3017 RMK AO2 SLP174
                 T02220050 =
2017-05-23 09:54 METAR KSLC 231554Z 19006KT 10SM FEW085 FEW250 21/04 A3018 RMK AO2 SLP175
                 T02110044 =
2017-05-23 08:54 METAR KSLC 231454Z 17007KT 10SM FEW080 FEW250 19/06 A3018 RMK AO2 SLP177
                 T01890056 50003 =
2017-05-23 07:54 METAR KSLC 231354Z 17007KT 10SM FEW080 FEW250 17/06 A3018 RMK AO2 SLP178
                 T01720061 =
2017-05-23 06:54 METAR KSLC 231254Z 17010KT 10SM FEW200 15/06 A3018 RMK AO2 SLP177 T01500061 $ =
2017-05-23 05:54 METAR KSLC 231154Z COR 14009KT 10SM FEW200 14/07 A3017 RMK AO2 SLP177 T01390067
                 10172 20133 $ =
2017-05-23 04:54 METAR KSLC 231054Z 16008KT 10SM FEW200 14/06 A3017 RMK AO2 SLP175 T01390056
                 CHINO NW RNWY $ =

Support USWX by starting your Amazon purchase here.